createdAt,value
2018-01-17T00:00:49.338Z,7.83
2018-01-17T00:03:16.809Z,7.77
2018-01-17T00:05:44.278Z,11.23
2018-01-17T00:08:11.764Z,11.13
2018-01-17T00:10:39.981Z,6.67
2018-01-17T00:13:07.539Z,5.43
2018-01-17T00:15:35.018Z,8.00
2018-01-17T00:18:02.493Z,9.47
2018-01-17T00:20:30.010Z,8.70
2018-01-17T00:22:57.462Z,8.07
2018-01-17T00:25:24.939Z,10.10
2018-01-17T00:27:52.408Z,10.00
2018-01-17T00:30:19.881Z,7.03
2018-01-17T00:32:47.354Z,6.20
2018-01-17T00:35:15.602Z,3.77
2018-01-17T00:37:43.079Z,7.70
2018-01-17T00:40:10.538Z,6.73
2018-01-17T00:42:38.014Z,7.93
2018-01-17T00:45:05.477Z,10.33
2018-01-17T00:47:32.957Z,8.40
2018-01-17T00:50:00.422Z,14.47
2018-01-17T00:52:27.897Z,14.07
2018-01-17T00:54:55.350Z,8.00
2018-01-17T00:57:22.806Z,6.83
2018-01-17T00:59:50.281Z,10.20
2018-01-17T01:02:17.794Z,6.30
2018-01-17T01:04:45.251Z,4.13
2018-01-17T01:07:12.701Z,6.23
2018-01-17T01:09:40.170Z,6.23
2018-01-17T01:12:07.634Z,6.63
2018-01-17T01:14:35.104Z,6.67
2018-01-17T01:17:02.561Z,5.97
2018-01-17T01:19:30.039Z,7.00
2018-01-17T01:21:57.493Z,6.53
2018-01-17T01:24:25.726Z,4.90
2018-01-17T01:26:53.194Z,1.47
2018-01-17T01:29:20.657Z,5.33
2018-01-17T01:31:48.118Z,4.17
2018-01-17T01:34:15.598Z,7.17
2018-01-17T01:36:43.840Z,3.40
2018-01-17T01:39:11.289Z,4.23
2018-01-17T01:41:38.761Z,4.17
2018-01-17T01:44:06.806Z,3.83
2018-01-17T01:46:34.277Z,4.07
2018-01-17T01:49:01.734Z,4.20
2018-01-17T01:51:29.189Z,4.90
2018-01-17T01:53:56.673Z,4.37
2018-01-17T01:56:24.145Z,7.70
2018-01-17T01:58:52.384Z,6.53
2018-01-17T02:01:19.840Z,3.10
2018-01-17T02:03:47.314Z,4.90
2018-01-17T02:06:14.766Z,6.70
2018-01-17T02:08:42.233Z,3.43
2018-01-17T02:11:09.691Z,6.50
2018-01-17T02:13:37.962Z,5.93
2018-01-17T02:16:05.413Z,8.90
2018-01-17T02:18:32.929Z,4.90
2018-01-17T02:21:00.388Z,7.13
2018-01-17T02:23:27.882Z,8.93
2018-01-17T02:25:55.355Z,4.80
2018-01-17T02:28:23.579Z,8.70
2018-01-17T02:30:51.054Z,5.83
2018-01-17T02:33:18.505Z,15.53
2018-01-17T02:35:45.979Z,6.53
2018-01-17T02:38:13.434Z,6.60
2018-01-17T02:40:40.909Z,11.83
2018-01-17T02:43:08.369Z,3.60
2018-01-17T02:45:36.606Z,4.17
2018-01-17T02:48:04.063Z,5.77
2018-01-17T02:50:31.534Z,6.30
2018-01-17T02:52:58.986Z,8.63
2018-01-17T02:55:26.450Z,3.40
2018-01-17T02:57:53.936Z,11.80
2018-01-17T03:00:22.150Z,4.50
2018-01-17T03:02:49.606Z,3.70
2018-01-17T03:05:17.082Z,7.90
2018-01-17T03:07:44.550Z,7.00
2018-01-17T03:10:12.018Z,7.73
2018-01-17T03:12:39.565Z,8.33
2018-01-17T03:15:07.025Z,10.67
2018-01-17T03:17:34.482Z,5.40
2018-01-17T03:20:01.962Z,4.73
2018-01-17T03:22:30.185Z,4.10
2018-01-17T03:24:57.672Z,5.90
2018-01-17T03:27:26.633Z,8.47
2018-01-17T03:29:54.105Z,9.10
2018-01-17T03:32:21.560Z,8.30
2018-01-17T03:34:49.017Z,10.37
2018-01-17T03:37:16.494Z,4.23
2018-01-17T03:39:43.945Z,4.53
2018-01-17T03:42:11.433Z,5.47
2018-01-17T03:44:38.891Z,5.90
2018-01-17T03:47:06.369Z,7.10
2018-01-17T03:49:33.821Z,7.27
2018-01-17T03:52:01.293Z,5.77
2018-01-17T03:54:28.750Z,6.83
2018-01-17T03:56:56.292Z,13.30
2018-01-17T03:59:23.737Z,5.40
2018-01-17T04:01:51.222Z,17.80
2018-01-17T04:04:18.682Z,10.57
2018-01-17T04:06:46.137Z,6.30
2018-01-17T04:09:13.610Z,7.97
2018-01-17T04:11:41.057Z,6.33
2018-01-17T04:14:08.531Z,9.17
2018-01-17T04:16:35.982Z,7.73
2018-01-17T04:19:03.903Z,6.67
2018-01-17T04:21:31.406Z,3.60
2018-01-17T04:23:58.850Z,3.37
2018-01-17T04:26:26.321Z,4.20
2018-01-17T04:28:53.781Z,14.77
2018-01-17T04:31:21.258Z,5.63
2018-01-17T04:33:49.474Z,6.20
2018-01-17T04:36:16.953Z,2.90
2018-01-17T04:38:44.424Z,4.73
2018-01-17T04:41:11.937Z,4.23
2018-01-17T04:43:39.440Z,7.37
2018-01-17T04:46:06.894Z,5.03
2018-01-17T04:48:34.370Z,2.43
2018-01-17T04:51:02.587Z,2.50
2018-01-17T04:53:30.069Z,2.73
2018-01-17T04:55:57.526Z,2.00
2018-01-17T04:58:25.001Z,3.65
2018-01-17T05:00:55.330Z,3.23
2018-01-17T05:03:22.882Z,2.53
2018-01-17T05:05:50.358Z,5.00
2018-01-17T05:08:18.578Z,4.57
2018-01-17T05:10:46.049Z,6.60
2018-01-17T05:13:13.510Z,6.15
2018-01-17T05:15:40.986Z,12.88
2018-01-17T05:18:09.214Z,8.60
2018-01-17T05:20:36.689Z,11.93
2018-01-17T05:23:04.165Z,11.07
2018-01-17T05:25:31.625Z,9.20
2018-01-17T05:27:59.098Z,9.87
2018-01-17T05:30:27.331Z,11.20
2018-01-17T05:32:54.798Z,11.13
2018-01-17T05:35:22.250Z,9.13
2018-01-17T05:37:49.729Z,14.13
2018-01-17T05:40:17.178Z,8.20
2018-01-17T05:42:44.653Z,10.63
2018-01-17T05:45:12.879Z,4.97
2018-01-17T05:47:40.346Z,7.77
2018-01-17T05:50:07.808Z,3.70
2018-01-17T05:52:35.282Z,4.33
2018-01-17T05:55:02.773Z,8.67
2018-01-17T05:57:31.001Z,12.17
2018-01-17T05:59:58.455Z,8.07
2018-01-17T06:02:25.935Z,2.90
2018-01-17T06:04:54.162Z,3.22
2018-01-17T06:07:21.606Z,8.30
2018-01-17T06:09:49.077Z,9.30
2018-01-17T06:12:16.537Z,5.73
2018-01-17T06:14:44.010Z,9.73
2018-01-17T06:17:11.470Z,4.23
2018-01-17T06:19:38.938Z,4.90
2018-01-17T06:22:06.421Z,9.27
2018-01-17T06:24:34.637Z,13.70
2018-01-17T06:27:02.289Z,5.30
2018-01-17T06:29:29.754Z,8.40
2018-01-17T06:31:57.225Z,14.10
2018-01-17T06:34:24.718Z,11.00
2018-01-17T06:36:52.950Z,12.40
2018-01-17T06:39:20.413Z,17.83
2018-01-17T06:41:47.884Z,23.23
2018-01-17T06:44:15.346Z,20.40
2018-01-17T06:46:43.594Z,15.17
2018-01-17T06:49:11.127Z,20.83
2018-01-17T06:51:38.584Z,17.52
2018-01-17T06:54:06.053Z,11.93
2018-01-17T06:56:33.518Z,16.47
2018-01-17T06:59:01.753Z,9.90
2018-01-17T07:01:29.234Z,10.68
2018-01-17T07:03:56.706Z,7.93
2018-01-17T07:06:24.178Z,12.60
2018-01-17T07:08:51.645Z,7.33
2018-01-17T07:11:19.110Z,15.17
2018-01-17T07:13:47.349Z,14.50
2018-01-17T07:16:14.807Z,20.53
2018-01-17T07:18:42.286Z,9.80
2018-01-17T07:21:11.253Z,12.20
2018-01-17T07:23:38.706Z,14.10
2018-01-17T07:26:06.189Z,10.50
2018-01-17T07:28:33.686Z,15.80
2018-01-17T07:31:01.155Z,11.07
2018-01-17T07:33:28.630Z,13.27
2018-01-17T07:35:56.110Z,18.87
2018-01-17T07:38:23.579Z,11.70
2018-01-17T07:40:51.038Z,10.37
2018-01-17T07:43:18.513Z,8.90
2018-01-17T07:45:46.757Z,9.30
2018-01-17T07:48:14.242Z,13.70
2018-01-17T07:50:42.473Z,11.77
2018-01-17T07:53:09.946Z,9.50
2018-01-17T07:55:37.426Z,17.97
2018-01-17T07:58:05.647Z,9.37
2018-01-17T08:00:33.143Z,6.90
2018-01-17T08:03:00.612Z,14.27
2018-01-17T08:05:28.857Z,12.50
2018-01-17T08:07:56.325Z,18.03
2018-01-17T08:10:23.889Z,14.03
2018-01-17T08:12:51.347Z,12.20
2018-01-17T08:15:18.806Z,14.20
2018-01-17T08:17:47.056Z,14.05
2018-01-17T08:20:14.519Z,13.20
2018-01-17T08:22:42.002Z,11.50
2018-01-17T08:25:10.234Z,12.17
2018-01-17T08:27:37.697Z,8.83
2018-01-17T08:30:05.154Z,15.83
2018-01-17T08:32:32.609Z,6.30
2018-01-17T08:35:00.082Z,12.30
2018-01-17T08:37:27.554Z,12.37
2018-01-17T08:39:55.789Z,9.10
2018-01-17T08:42:23.257Z,10.80
2018-01-17T08:44:50.741Z,12.40
2018-01-17T08:47:18.181Z,9.70
2018-01-17T08:49:45.657Z,19.30
2018-01-17T08:52:13.897Z,7.93
2018-01-17T08:54:41.373Z,10.80
2018-01-17T08:57:08.834Z,13.07
2018-01-17T08:59:36.305Z,12.10
2018-01-17T09:02:04.537Z,13.50
2018-01-17T09:04:31.995Z,10.80
2018-01-17T09:06:59.480Z,12.33
2018-01-17T09:09:28.521Z,8.77
2018-01-17T09:11:55.977Z,8.23
2018-01-17T09:14:23.450Z,12.07
2018-01-17T09:16:50.930Z,13.63
2018-01-17T09:19:18.756Z,15.93
2018-01-17T09:21:46.230Z,15.23
2018-01-17T09:24:13.703Z,13.80
2018-01-17T09:26:41.157Z,10.93
2018-01-17T09:29:08.637Z,10.43
2018-01-17T09:31:36.185Z,7.17
2018-01-17T09:34:03.678Z,6.60
2018-01-17T09:36:31.174Z,7.87
2018-01-17T09:38:58.625Z,8.40
2018-01-17T09:41:26.099Z,9.93
2018-01-17T09:43:53.573Z,9.07
2018-01-17T09:46:21.038Z,8.53
2018-01-17T09:48:49.258Z,7.97
2018-01-17T09:51:16.744Z,3.97
2018-01-17T09:53:44.198Z,7.03
2018-01-17T09:56:11.649Z,5.27
2018-01-17T09:58:39.121Z,5.20
2018-01-17T10:01:06.581Z,4.90
2018-01-17T10:03:34.057Z,9.03
2018-01-17T10:06:02.285Z,9.83
2018-01-17T10:08:29.757Z,9.73
2018-01-17T10:10:57.226Z,13.40
2018-01-17T10:13:24.697Z,10.83
2018-01-17T10:15:52.941Z,12.40
2018-01-17T10:18:20.409Z,9.67
2018-01-17T10:20:49.378Z,19.20
2018-01-17T10:23:16.829Z,7.83
2018-01-17T10:25:44.310Z,12.13
2018-01-17T10:28:11.770Z,13.03
2018-01-17T10:30:39.238Z,10.90
2018-01-17T10:33:06.709Z,11.43
2018-01-17T10:35:35.019Z,17.17
2018-01-17T10:38:02.490Z,11.90
2018-01-17T10:40:29.952Z,15.50
2018-01-17T10:42:57.425Z,10.63
2018-01-17T10:45:24.886Z,15.43
2018-01-17T10:47:52.350Z,8.87
2018-01-17T10:50:19.822Z,11.93
2018-01-17T10:52:48.062Z,14.53
2018-01-17T10:55:15.533Z,14.97
2018-01-17T10:57:43.032Z,16.20
2018-01-17T11:00:10.511Z,13.10
2018-01-17T11:02:37.982Z,11.20
2018-01-17T11:05:05.429Z,8.60
2018-01-17T11:07:32.904Z,12.63
2018-01-17T11:10:00.361Z,7.57
2018-01-17T11:12:27.823Z,11.60
2018-01-17T11:14:55.285Z,14.30
2018-01-17T11:17:22.759Z,13.47
2018-01-17T11:19:51.072Z,14.43
2018-01-17T11:22:18.523Z,15.80
2018-01-17T11:24:45.989Z,12.60
2018-01-17T11:27:13.451Z,11.57
2018-01-17T11:29:40.921Z,12.33
2018-01-17T11:32:08.410Z,15.90
2018-01-17T11:34:35.866Z,23.07
2018-01-17T11:37:03.329Z,15.73
2018-01-17T11:39:31.565Z,24.77
2018-01-17T11:41:59.026Z,29.83
2018-01-17T11:44:26.513Z,18.97
2018-01-17T11:46:53.973Z,17.30
2018-01-17T11:49:22.209Z,18.13
2018-01-17T11:51:49.688Z,16.40
2018-01-17T11:54:18.663Z,21.70
2018-01-17T11:56:46.141Z,26.97
2018-01-17T11:59:13.626Z,11.37
2018-01-17T12:01:41.854Z,11.53
2018-01-17T12:04:09.315Z,14.80
2018-01-17T12:06:36.785Z,18.73
2018-01-17T12:09:04.253Z,13.17
2018-01-17T12:11:32.487Z,8.43
2018-01-17T12:14:00.025Z,15.20
2018-01-17T12:16:27.523Z,12.90
2018-01-17T12:18:54.994Z,9.00
2018-01-17T12:21:23.222Z,10.33
2018-01-17T12:23:50.709Z,10.63
2018-01-17T12:26:18.172Z,13.57
2018-01-17T12:28:45.630Z,14.23
2018-01-17T12:31:13.101Z,20.17
2018-01-17T12:33:41.337Z,18.53
2018-01-17T12:36:08.809Z,13.37
2018-01-17T12:38:36.273Z,22.90
2018-01-17T12:41:03.741Z,12.53
2018-01-17T12:43:31.989Z,17.13
2018-01-17T12:45:59.467Z,13.57
2018-01-17T12:48:26.970Z,19.90
2018-01-17T12:50:54.425Z,12.20
2018-01-17T12:53:21.917Z,19.17
2018-01-17T12:55:49.377Z,23.40
2018-01-17T12:58:16.850Z,22.07
2018-01-17T13:00:45.084Z,13.07
2018-01-17T13:03:12.559Z,12.60
2018-01-17T13:05:40.026Z,21.80
2018-01-17T13:08:09.019Z,13.00
2018-01-17T13:10:36.473Z,10.17
2018-01-17T13:13:03.935Z,12.30
2018-01-17T13:15:31.410Z,19.87
2018-01-17T13:17:59.720Z,9.70
2018-01-17T13:20:27.169Z,24.80
2018-01-17T13:22:54.642Z,19.27
2018-01-17T13:25:22.135Z,14.70
2018-01-17T13:27:49.613Z,26.33
2018-01-17T13:30:17.846Z,21.67
2018-01-17T13:32:45.328Z,36.33
2018-01-17T13:35:12.794Z,19.47
2018-01-17T13:37:41.021Z,18.27
2018-01-17T13:40:08.489Z,27.87
2018-01-17T13:42:35.963Z,20.87
2018-01-17T13:45:03.437Z,17.00
2018-01-17T13:47:31.666Z,15.43
2018-01-17T13:49:59.129Z,15.80
2018-01-17T13:52:26.586Z,12.13
2018-01-17T13:54:54.061Z,18.63
2018-01-17T13:57:21.533Z,19.77
2018-01-17T13:59:49.779Z,26.40
2018-01-17T14:02:17.247Z,19.57
2018-01-17T14:04:44.730Z,28.40
2018-01-17T14:07:12.965Z,21.97
2018-01-17T14:09:40.422Z,18.20
2018-01-17T14:12:07.901Z,29.60
2018-01-17T14:14:35.362Z,15.67
2018-01-17T14:17:02.827Z,21.07
2018-01-17T14:19:31.067Z,24.97
2018-01-17T14:21:58.522Z,11.60
2018-01-17T14:24:25.994Z,10.70
2018-01-17T14:26:54.219Z,22.27
2018-01-17T14:29:21.701Z,19.50
2018-01-17T14:31:49.169Z,18.83
2018-01-17T14:34:16.660Z,27.27
2018-01-17T14:36:44.104Z,20.07
2018-01-17T14:39:11.590Z,13.60
2018-01-17T14:41:39.805Z,20.30
2018-01-17T14:44:07.297Z,18.83
2018-01-17T14:46:34.765Z,24.10
2018-01-17T14:49:02.978Z,12.50
2018-01-17T14:51:30.458Z,16.83
2018-01-17T14:53:57.943Z,13.20
2018-01-17T14:56:25.444Z,28.97
2018-01-17T14:58:52.898Z,23.37
2018-01-17T15:01:20.369Z,19.37
2018-01-17T15:03:47.901Z,18.47
2018-01-17T15:06:15.381Z,16.50
2018-01-17T15:08:42.860Z,18.43
2018-01-17T15:11:10.314Z,21.20
2018-01-17T15:13:37.796Z,15.33
2018-01-17T15:16:05.237Z,19.40
2018-01-17T15:18:34.225Z,15.37
2018-01-17T15:21:01.689Z,20.97
2018-01-17T15:23:29.160Z,17.63
2018-01-17T15:25:57.406Z,17.77
2018-01-17T15:28:24.872Z,11.23
2018-01-17T15:30:52.347Z,13.20
2018-01-17T15:33:19.810Z,20.20
2018-01-17T15:35:48.033Z,23.10
2018-01-17T15:38:15.522Z,10.60
2018-01-17T15:40:42.984Z,15.70
2018-01-17T15:43:11.203Z,22.23
2018-01-17T15:45:38.702Z,19.80
2018-01-17T15:48:06.167Z,15.27
2018-01-17T15:50:33.629Z,14.10
2018-01-17T15:53:01.899Z,15.97
2018-01-17T15:55:29.410Z,21.17
2018-01-17T15:57:56.909Z,12.80
2018-01-17T16:00:24.400Z,16.00
2018-01-17T16:02:52.630Z,15.43
2018-01-17T16:05:20.098Z,15.23
2018-01-17T16:07:47.578Z,23.87
2018-01-17T16:10:15.798Z,16.23
2018-01-17T16:12:43.290Z,15.13
2018-01-17T16:15:10.758Z,17.47
2018-01-17T16:17:38.979Z,17.53
2018-01-17T16:20:06.463Z,19.23
2018-01-17T16:22:33.933Z,16.97
2018-01-17T16:25:01.440Z,9.00
2018-01-17T16:27:28.902Z,18.40
2018-01-17T16:29:56.409Z,15.80
2018-01-17T16:32:23.870Z,19.17
2018-01-17T16:34:52.103Z,13.73
2018-01-17T16:37:19.584Z,15.20
2018-01-17T16:39:47.805Z,25.73
2018-01-17T16:42:15.282Z,19.37
2018-01-17T16:44:42.750Z,18.20
2018-01-17T16:47:10.238Z,15.80
2018-01-17T16:49:37.709Z,16.23
2018-01-17T16:52:05.937Z,19.57
2018-01-17T16:54:33.418Z,25.57
2018-01-17T16:57:00.882Z,14.63
2018-01-17T16:59:28.397Z,19.47
2018-01-17T17:01:55.892Z,12.80
2018-01-17T17:04:23.383Z,22.93
2018-01-17T17:06:51.626Z,23.47
2018-01-17T17:09:19.148Z,22.27
2018-01-17T17:11:47.904Z,23.20
2018-01-17T17:14:15.426Z,21.00
2018-01-17T17:16:42.902Z,19.03
2018-01-17T17:19:11.133Z,18.80
2018-01-17T17:21:38.621Z,27.10
2018-01-17T17:24:06.857Z,21.30
2018-01-17T17:26:34.328Z,20.83
2018-01-17T17:29:01.815Z,17.27
2018-01-17T17:31:29.282Z,16.93
2018-01-17T17:33:57.510Z,26.67
2018-01-17T17:36:24.971Z,13.90
2018-01-17T17:38:52.459Z,25.77
2018-01-17T17:41:19.950Z,19.70
2018-01-17T17:43:47.422Z,17.67
2018-01-17T17:46:14.882Z,18.43
2018-01-17T17:48:42.366Z,18.10
2018-01-17T17:51:09.849Z,23.90
2018-01-17T17:53:38.072Z,23.10
2018-01-17T17:56:05.553Z,23.77
2018-01-17T17:58:33.015Z,16.93
2018-01-17T18:01:00.489Z,20.00
2018-01-17T18:03:28.725Z,13.17
2018-01-17T18:05:56.798Z,27.13
2018-01-17T18:08:24.281Z,20.90
2018-01-17T18:10:53.257Z,15.20
2018-01-17T18:13:20.731Z,26.37
2018-01-17T18:15:48.210Z,21.77
2018-01-17T18:18:16.460Z,15.90
2018-01-17T18:20:44.682Z,18.63
2018-01-17T18:23:12.978Z,21.23
2018-01-17T18:25:40.434Z,17.50
2018-01-17T18:28:07.911Z,14.60
2018-01-17T18:30:35.370Z,20.30
2018-01-17T18:33:02.858Z,19.37
2018-01-17T18:35:31.086Z,26.33
2018-01-17T18:37:58.572Z,17.07
2018-01-17T18:40:26.024Z,12.87
2018-01-17T18:42:53.497Z,27.93
2018-01-17T18:45:21.738Z,21.17
2018-01-17T18:47:49.243Z,16.60
2018-01-17T18:50:16.680Z,7.83
2018-01-17T18:52:44.910Z,27.23
2018-01-17T18:55:12.408Z,21.70
2018-01-17T18:57:39.865Z,15.57
2018-01-17T19:00:08.094Z,31.67
2018-01-17T19:02:35.590Z,13.23
2018-01-17T19:05:03.049Z,29.33
2018-01-17T19:07:30.561Z,19.80
2018-01-17T19:09:58.013Z,14.00
2018-01-17T19:12:25.470Z,16.80
2018-01-17T19:14:52.974Z,21.80
2018-01-17T19:17:20.437Z,15.63
2018-01-17T19:19:48.700Z,14.23
2018-01-17T19:22:16.163Z,21.80
2018-01-17T19:24:43.626Z,12.47
2018-01-17T19:27:12.607Z,18.73
2018-01-17T19:29:40.114Z,13.90
2018-01-17T19:32:07.552Z,10.57
2018-01-17T19:34:35.010Z,37.90
2018-01-17T19:37:03.274Z,26.33
2018-01-17T19:39:31.513Z,21.70
2018-01-17T19:42:00.695Z,27.40
2018-01-17T19:44:28.177Z,17.93
2018-01-17T19:46:55.642Z,20.80
2018-01-17T19:49:23.117Z,17.60
2018-01-17T19:51:51.345Z,17.40
2018-01-17T19:54:18.819Z,19.37
2018-01-17T19:56:46.296Z,18.60
2018-01-17T19:59:14.530Z,18.87
2018-01-17T20:01:41.985Z,24.07
2018-01-17T20:04:09.453Z,19.37
2018-01-17T20:06:36.914Z,24.80
2018-01-17T20:09:04.383Z,25.57
2018-01-17T20:11:31.867Z,20.70
2018-01-17T20:13:59.448Z,19.37
2018-01-17T20:16:26.927Z,16.47
2018-01-17T20:18:54.390Z,24.87
2018-01-17T20:21:21.921Z,20.27
2018-01-17T20:23:49.393Z,18.90
2018-01-17T20:26:16.862Z,24.87
2018-01-17T20:28:44.338Z,32.13
2018-01-17T20:31:13.402Z,15.33
2018-01-17T20:33:41.696Z,20.53
2018-01-17T20:36:09.150Z,34.60
2018-01-17T20:38:36.621Z,16.87
2018-01-17T20:41:04.094Z,17.93
2018-01-17T20:43:32.342Z,25.73
2018-01-17T20:45:59.814Z,22.00
2018-01-17T20:48:27.285Z,25.57
2018-01-17T20:50:55.521Z,20.93
2018-01-17T20:53:22.986Z,26.43
2018-01-17T20:55:50.450Z,26.47
2018-01-17T20:58:17.930Z,21.70
2018-01-17T21:00:45.406Z,15.00
2018-01-17T21:03:12.905Z,20.67
2018-01-17T21:05:40.409Z,24.43
2018-01-17T21:08:07.870Z,20.17
2018-01-17T21:10:35.329Z,16.07
2018-01-17T21:13:02.782Z,22.53
2018-01-17T21:15:30.274Z,19.50
2018-01-17T21:17:57.746Z,21.90
2018-01-17T21:20:25.230Z,23.20
2018-01-17T21:22:53.463Z,22.83
2018-01-17T21:25:20.925Z,19.97
2018-01-17T21:27:48.409Z,25.40
2018-01-17T21:30:15.875Z,26.07
2018-01-17T21:32:44.138Z,30.00
2018-01-17T21:35:11.624Z,29.00
2018-01-17T21:37:39.870Z,24.57
2018-01-17T21:40:07.379Z,22.17
2018-01-17T21:42:40.626Z,28.90
2018-01-17T21:45:13.822Z,31.63
2018-01-17T21:47:42.051Z,40.20
2018-01-17T21:50:09.534Z,21.77
2018-01-17T21:52:37.049Z,30.50
2018-01-17T21:55:04.517Z,23.47
2018-01-17T21:57:31.986Z,22.47
2018-01-17T21:59:59.447Z,38.23
2018-01-17T22:02:26.902Z,21.20
2018-01-17T22:04:54.386Z,28.23
2018-01-17T22:07:21.882Z,28.17
2018-01-17T22:09:49.358Z,21.17
2018-01-17T22:12:16.821Z,27.97
2018-01-17T22:14:44.299Z,24.10
2018-01-17T22:17:11.791Z,37.57
2018-01-17T22:19:40.009Z,25.57
2018-01-17T22:22:07.478Z,25.33
2018-01-17T22:24:34.941Z,16.17
2018-01-17T22:27:02.414Z,27.90
2018-01-17T22:29:29.963Z,26.43
2018-01-17T22:31:57.449Z,26.10
2018-01-17T22:34:25.673Z,22.60
2018-01-17T22:36:53.159Z,26.03
2018-01-17T22:39:20.958Z,24.53
2018-01-17T22:41:48.449Z,25.00
2018-01-17T22:44:15.906Z,35.93
2018-01-17T22:46:44.579Z,21.20
2018-01-17T22:49:12.047Z,22.87
2018-01-17T22:51:39.514Z,29.50
2018-01-17T22:54:06.970Z,27.73
2018-01-17T22:56:34.477Z,25.27
2018-01-17T22:59:02.693Z,34.70
2018-01-17T23:01:30.225Z,21.17
2018-01-17T23:03:57.682Z,34.23
2018-01-17T23:06:25.154Z,27.40
2018-01-17T23:08:52.605Z,26.70
2018-01-17T23:11:20.081Z,20.90
2018-01-17T23:13:47.542Z,25.23
2018-01-17T23:16:15.018Z,31.17
2018-01-17T23:18:43.245Z,23.27
2018-01-17T23:21:10.738Z,23.80
2018-01-17T23:23:38.198Z,35.27
2018-01-17T23:26:05.654Z,23.70
2018-01-17T23:28:33.123Z,15.87
2018-01-17T23:31:01.345Z,18.20
2018-01-17T23:33:28.824Z,27.83
2018-01-17T23:35:56.290Z,16.57
2018-01-17T23:38:23.745Z,16.43
2018-01-17T23:40:51.218Z,18.13
2018-01-17T23:43:18.691Z,22.53
2018-01-17T23:45:46.930Z,24.30
2018-01-17T23:48:14.401Z,24.07
2018-01-17T23:50:41.880Z,31.73
2018-01-17T23:53:09.342Z,17.80
2018-01-17T23:55:36.827Z,29.20
2018-01-17T23:58:04.302Z,28.73
